Time;durP1;ratioP1;P1;durP2;ratioP2;P2;SDS_P1;SDS_P2;PMS_P1;PMS_P2;Temp;Humidity;BMP_temperature;BMP_pressure;BME280_temperature;BME280_humidity;BME280_pressure;Samples;Min_cycle;Max_cycle;Signal;HPM_P1;HPM_P2
2022/09/03 00:02:44;;;;;;;;;;;15.10;99.90;;;;;;5019853;28;20531;-76
2022/09/03 00:05:36;;;;;;;22.02;20.63;;;15.10;99.90;;;;;;5025767;28;19929;-76
2022/09/03 00:08:20;;;;;;;21.67;20.38;;;15.10;99.90;;;;;;5010093;28;20530;-77
2022/09/03 00:11:16;;;;;;;22.17;20.77;;;15.00;99.90;;;;;;5022341;28;20130;-79
2022/09/03 00:13:58;;;;;;;22.52;20.88;;;15.00;99.90;;;;;;5002348;28;20048;-79
2022/09/03 00:16:32;;;;;;;22.02;20.33;;;15.00;99.90;;;;;;4997325;28;20041;-79
2022/09/03 00:19:02;;;;;;;22.02;20.63;;;14.90;99.90;;;;;;5001064;28;20049;-80
2022/09/03 00:21:45;;;;;;;21.58;20.15;;;14.90;99.90;;;;;;5020487;28;20116;-79
2022/09/03 00:24:15;;;;;;;21.40;20.10;;;14.90;99.90;;;;;;5003732;28;20053;-78
2022/09/03 00:26:50;;;;;;;21.50;20.10;;;14.90;99.90;;;;;;4986495;28;20049;-77
2022/09/03 00:29:23;;;;;;;21.42;19.95;;;15.00;99.90;;;;;;5004051;28;20050;-77
2022/09/03 00:31:55;;;;;;;21.33;19.92;;;14.90;99.90;;;;;;5001180;28;20583;-78
2022/09/03 00:34:33;;;;;;;21.40;20.10;;;15.00;99.90;;;;;;5002923;28;20108;-78
2022/09/03 00:37:00;;;;;;;21.23;19.92;;;14.90;99.90;;;;;;4999718;28;20049;-78
2022/09/03 00:39:27;;;;;;;21.40;20.10;;;14.80;99.90;;;;;;5004798;28;20049;-78
2022/09/03 00:42:12;;;;;;;21.45;20.05;;;14.90;99.90;;;;;;5012276;28;20518;-77
2022/09/03 00:44:44;;;;;;;21.55;20.05;;;14.80;99.90;;;;;;5004277;28;20050;-78
2022/09/03 00:47:35;;;;;;;21.92;20.42;;;14.70;99.90;;;;;;4980385;28;20049;-78
2022/09/03 00:57:52;;;;;;;21.55;20.25;;;14.70;99.90;;;;;;5001275;28;20108;-77
2022/09/03 01:00:20;;;;;;;21.88;20.38;;;14.70;99.90;;;;;;4996480;28;20057;-78
2022/09/03 01:03:14;;;;;;;21.83;20.42;;;14.70;99.90;;;;;;4985481;28;20622;-78
2022/09/03 01:06:05;;;;;;;21.88;20.48;;;14.70;99.90;;;;;;4991196;28;20058;-77
2022/09/03 01:08:43;;;;;;;21.50;20.15;;;14.70;99.90;;;;;;4983408;28;20111;-77
2022/09/03 01:11:32;;;;;;;21.67;20.27;;;14.70;99.90;;;;;;4996722;28;20056;-77
2022/09/03 01:14:08;;;;;;;21.40;20.02;;;14.60;99.90;;;;;;4995219;28;20077;-78
2022/09/03 01:16:47;;;;;;;21.92;20.42;;;14.60;99.90;;;;;;4993942;28;20088;-78
2022/09/03 01:19:42;;;;;;;22.70;20.75;;;14.60;99.90;;;;;;5002361;28;20086;-77
2022/09/03 01:22:23;;;;;;;21.40;20.10;;;14.60;99.90;;;;;;4979181;28;20070;-77
2022/09/03 01:25:06;;;;;;;21.98;20.48;;;14.60;99.90;;;;;;5010787;28;20304;-78
2022/09/03 01:28:00;;;;;;;21.77;20.38;;;14.50;99.90;;;;;;4983496;28;20287;-77
2022/09/03 01:30:30;;;;;;;21.98;20.58;;;14.50;99.90;;;;;;4982159;28;20447;-78
2022/09/03 01:33:03;;;;;;;21.58;20.13;;;14.50;99.90;;;;;;5022361;28;20393;-77
2022/09/03 01:36:05;;;;;;;21.88;20.40;;;14.50;99.90;;;;;;4990755;28;20053;-77
2022/09/03 01:38:46;;;;;;;21.13;19.83;;;14.50;99.90;;;;;;4991820;28;20571;-77
2022/09/03 01:44:39;;;;;;;21.45;20.05;;;14.50;99.90;;;;;;5012802;28;20483;-78
2022/09/03 01:47:32;;;;;;;21.38;19.98;;;14.50;99.90;;;;;;4997986;28;20058;-77
2022/09/03 01:50:11;;;;;;;21.65;20.25;;;14.40;99.90;;;;;;4979867;28;20407;-78
2022/09/03 01:52:59;;;;;;;21.55;20.23;;;14.30;99.90;;;;;;4997727;28;20045;-78
2022/09/03 01:55:32;;;;;;;22.02;20.63;;;14.30;99.90;;;;;;4996506;28;20096;-78
2022/09/03 01:58:11;;;;;;;21.73;20.33;;;14.30;99.90;;;;;;5027192;28;20041;-78
2022/09/03 02:00:42;;;;;;;21.08;19.77;;;14.30;99.90;;;;;;4997916;28;20302;-78
2022/09/03 02:03:11;;;;;;;22.70;20.63;;;14.30;99.90;;;;;;5012231;28;20054;-78
2022/09/03 02:05:38;;;;;;;21.75;20.35;;;14.20;99.90;;;;;;5008550;28;20595;-78
2022/09/03 02:08:08;;;;;;;21.90;20.30;;;14.20;99.90;;;;;;4996078;28;20076;-78
2022/09/03 02:10:51;;;;;;;21.25;19.95;;;14.20;99.90;;;;;;4998842;28;20245;-78
2022/09/03 02:13:25;;;;;;;22.50;20.77;;;14.20;99.90;;;;;;4997166;28;20419;-77
2022/09/03 02:15:55;;;;;;;20.77;19.58;;;14.20;99.90;;;;;;4996326;28;20254;-77
2022/09/03 02:18:30;;;;;;;21.40;19.75;;;14.20;99.90;;;;;;4979663;28;20276;-78
2022/09/03 02:20:59;;;;;;;20.75;19.35;;;14.10;99.90;;;;;;5000637;28;20650;-77
2022/09/03 02:23:27;;;;;;;21.08;19.77;;;14.10;99.90;;;;;;4995706;28;20128;-77
2022/09/03 02:26:00;;;;;;;21.30;19.80;;;14.20;99.90;;;;;;4999014;28;20042;-78
2022/09/03 02:28:29;;;;;;;21.15;19.75;;;14.10;99.90;;;;;;4996448;28;20081;-78
2022/09/03 02:30:56;;;;;;;20.83;19.52;;;14.10;99.90;;;;;;4999772;28;20037;-78
2022/09/03 02:33:23;;;;;;;21.15;19.63;;;14.10;99.90;;;;;;4996429;28;20759;-77
2022/09/03 02:35:51;;;;;;;21.15;19.88;;;14.10;99.90;;;;;;5007086;28;20049;-78
2022/09/03 02:38:24;;;;;;;21.50;19.85;;;14.00;99.90;;;;;;4991098;28;20343;-76
2022/09/03 02:40:55;;;;;;;20.50;19.30;;;14.10;99.90;;;;;;4991674;28;20143;-78
2022/09/03 02:43:39;;;;;;;20.73;19.52;;;14.00;99.90;;;;;;5001782;28;20049;-78
2022/09/03 02:46:11;;;;;;;21.08;19.77;;;14.00;99.90;;;;;;4995990;28;20162;-77
2022/09/03 02:48:38;;;;;;;20.65;19.30;;;14.00;99.90;;;;;;5020058;28;20042;-78
2022/09/03 02:51:05;;;;;;;21.15;19.83;;;14.00;99.90;;;;;;5009544;28;20128;-77
2022/09/03 02:53:41;;;;;;;21.27;19.98;;;14.00;99.90;;;;;;5004436;28;20069;-78
2022/09/03 02:56:08;;;;;;;21.00;19.80;;;13.90;99.90;;;;;;5002055;28;20127;-77
2022/09/03 02:58:35;;;;;;;21.25;19.92;;;13.90;99.90;;;;;;4999706;28;20137;-77
2022/09/03 03:01:02;;;;;;;21.90;20.45;;;13.90;99.90;;;;;;5008123;28;20040;-77
2022/09/03 03:03:30;;;;;;;21.85;20.45;;;13.70;99.90;;;;;;4988971;28;20054;-78
2022/09/03 03:06:00;;;;;;;21.52;20.13;;;13.80;99.90;;;;;;5006917;28;20045;-77
2022/09/03 03:08:29;;;;;;;20.80;19.60;;;13.80;99.90;;;;;;4993032;28;20542;-78
2022/09/03 03:10:57;;;;;;;21.20;19.90;;;13.80;99.90;;;;;;5003731;28;20049;-78
2022/09/03 03:13:28;;;;;;;21.25;19.85;;;13.80;99.90;;;;;;5017432;28;20041;-77
2022/09/03 03:16:05;;;;;;;20.70;19.50;;;13.70;99.90;;;;;;5011552;23;20487;-73
2022/09/03 03:18:33;;;;;;;21.67;20.30;;;13.70;99.90;;;;;;4985946;28;20108;-73
2022/09/03 03:21:04;;;;;;;21.08;19.88;;;13.70;99.90;;;;;;4997695;28;20226;-70
2022/09/03 03:23:32;;;;;;;21.70;20.38;;;13.70;99.90;;;;;;4987103;28;20477;-69
2022/09/03 03:26:01;;;;;;;20.85;19.65;;;13.60;99.90;;;;;;4995370;28;20081;-71
2022/09/03 03:28:33;;;;;;;21.15;19.75;;;13.60;99.90;;;;;;4975387;28;20460;-73
2022/09/03 03:31:11;;;;;;;21.52;20.00;;;13.60;99.90;;;;;;4984876;28;20648;-72
2022/09/03 03:33:39;;;;;;;20.67;19.38;;;13.60;99.90;;;;;;5013038;28;20072;-71
2022/09/03 03:36:14;;;;;;;21.42;20.13;;;13.50;99.90;;;;;;5005433;28;20053;-71
2022/09/03 03:38:42;;;;;;;21.10;19.90;;;13.50;99.90;;;;;;4961818;28;20046;-71
2022/09/03 03:41:14;;;;;;;21.13;19.73;;;13.50;99.90;;;;;;4986559;28;20575;-70
2022/09/03 03:43:41;;;;;;;21.63;20.23;;;13.50;99.90;;;;;;5011676;28;21172;-72
2022/09/03 03:46:09;;;;;;;21.33;20.10;;;13.40;99.90;;;;;;5004511;28;20046;-72
2022/09/03 03:48:37;;;;;;;21.38;20.08;;;13.40;99.90;;;;;;4993715;28;20057;-73
2022/09/03 03:51:06;;;;;;;22.00;20.42;;;13.40;99.90;;;;;;4992443;28;20089;-71
2022/09/03 03:53:34;;;;;;;21.70;20.30;;;13.40;99.90;;;;;;4982786;28;20042;-73
2022/09/03 03:56:04;;;;;;;21.75;20.30;;;13.30;99.90;;;;;;4983119;28;20045;-71
2022/09/03 03:58:32;;;;;;;21.67;20.20;;;13.30;99.90;;;;;;4978078;28;20100;-72
2022/09/03 04:01:07;;;;;;;21.27;19.98;;;13.30;99.90;;;;;;4969781;28;20116;-71
2022/09/03 04:03:35;;;;;;;21.42;19.95;;;13.30;99.90;;;;;;4978151;28;20046;-72
2022/09/03 04:06:03;;;;;;;22.08;20.67;;;13.30;99.90;;;;;;4989515;28;20631;-72
2022/09/03 04:08:34;;;;;;;21.02;19.60;;;13.20;99.90;;;;;;4978083;28;20101;-72
2022/09/03 04:11:01;;;;;;;21.20;19.90;;;13.10;99.90;;;;;;4961574;28;20034;-72
2022/09/03 04:13:32;;;;;;;21.40;20.10;;;13.20;99.90;;;;;;4972806;28;20049;-72
2022/09/03 04:16:05;;;;;;;21.65;20.27;;;13.10;99.90;;;;;;4997541;28;20038;-71
2022/09/03 04:18:32;;;;;;;21.80;20.40;;;13.10;99.90;;;;;;4995853;28;20089;-74
2022/09/03 04:21:05;;;;;;;21.17;19.95;;;13.10;99.90;;;;;;4991750;28;20037;-69
2022/09/03 04:23:35;;;;;;;22.20;20.40;;;13.20;99.90;;;;;;4995036;28;20045;-70
2022/09/03 04:26:03;;;;;;;21.77;20.27;;;13.10;99.90;;;;;;5002337;28;20061;-72
2022/09/03 04:28:31;;;;;;;21.45;20.15;;;12.90;99.90;;;;;;5010709;28;20054;-70
2022/09/03 04:31:06;;;;;;;21.95;20.55;;;13.10;99.90;;;;;;4995546;28;20068;-70
2022/09/03 04:33:36;;;;;;;22.05;20.65;;;13.10;99.90;;;;;;5015973;28;20049;-70
2022/09/03 04:36:10;;;;;;;21.90;20.50;;;13.10;99.90;;;;;;4998489;28;20041;-69
2022/09/03 04:38:40;;;;;;;21.77;20.48;;;13.10;99.90;;;;;;5015689;28;20189;-70
2022/09/03 04:41:09;;;;;;;22.70;20.98;;;13.00;99.90;;;;;;5016335;28;20465;-70
2022/09/03 04:43:36;;;;;;;21.58;20.33;;;13.10;99.90;;;;;;4987877;28;20054;-72
2022/09/03 04:46:05;;;;;;;22.02;20.50;;;13.10;99.90;;;;;;5002259;28;20463;-69
2022/09/03 04:48:34;;;;;;;22.23;20.73;;;13.10;99.90;;;;;;5015946;28;20045;-71
2022/09/03 04:51:13;;;;;;;22.05;20.38;;;13.00;99.90;;;;;;4998642;28;20145;-69
2022/09/03 04:53:43;;;;;;;24.92;23.35;;;13.00;99.90;;;;;;4997073;28;20049;-70
2022/09/03 04:56:24;;;;;;;24.48;22.98;;;13.10;99.90;;;;;;5021179;28;20037;-71
2022/09/03 04:58:56;;;;;;;25.60;23.95;;;13.10;99.90;;;;;;5013568;28;20128;-71
2022/09/03 05:01:25;;;;;;;24.80;23.38;;;13.10;99.90;;;;;;5011263;28;20137;-71
2022/09/03 05:03:54;;;;;;;24.48;22.88;;;13.10;99.90;;;;;;4996218;28;20581;-71
2022/09/03 05:06:20;;;;;;;24.60;23.10;;;13.10;99.90;;;;;;5014207;28;20061;-70
2022/09/03 05:08:48;;;;;;;24.70;22.77;;;13.10;99.90;;;;;;4996257;28;20123;-70
2022/09/03 05:11:16;;;;;;;24.02;22.63;;;13.10;99.90;;;;;;4988995;28;20140;-74
2022/09/03 05:13:47;;;;;;;24.08;22.58;;;13.10;99.90;;;;;;5008096;28;20689;-72
2022/09/03 05:16:15;;;;;;;24.55;23.05;;;13.10;99.90;;;;;;4991270;28;20037;-72
2022/09/03 05:18:41;;;;;;;25.05;23.40;;;13.10;99.90;;;;;;5013212;28;20049;-71
2022/09/03 05:21:11;;;;;;;23.80;22.40;;;13.10;99.90;;;;;;5013357;28;20313;-73
2022/09/03 05:23:41;;;;;;;24.35;22.77;;;13.10;99.90;;;;;;5014957;28;20068;-72
2022/09/03 05:26:11;;;;;;;24.40;22.90;;;13.10;99.90;;;;;;5012949;28;20130;-71
2022/09/03 05:28:40;;;;;;;24.42;23.00;;;13.10;99.90;;;;;;5006277;28;20116;-72
2022/09/03 05:31:10;;;;;;;24.10;22.70;;;13.20;99.90;;;;;;5013397;28;20535;-72
2022/09/03 05:33:40;;;;;;;24.48;22.77;;;13.20;99.90;;;;;;5014926;28;20053;-69
2022/09/03 05:36:10;;;;;;;24.70;23.10;;;13.20;99.90;;;;;;4993249;28;20042;-70
2022/09/03 05:38:38;;;;;;;23.83;22.27;;;13.10;99.90;;;;;;4991697;28;20084;-71
2022/09/03 05:41:07;;;;;;;24.00;22.50;;;13.20;99.90;;;;;;5009650;28;20125;-70
2022/09/03 05:43:34;;;;;;;24.63;23.02;;;13.20;99.90;;;;;;5014345;28;20045;-70
2022/09/03 05:46:08;;;;;;;24.15;22.75;;;13.20;99.90;;;;;;5008367;28;20119;-69
2022/09/03 05:48:36;;;;;;;23.52;22.13;;;13.30;99.90;;;;;;5004860;28;20092;-74
2022/09/03 05:51:08;;;;;;;23.88;22.48;;;13.30;99.90;;;;;;5011604;28;20582;-69
2022/09/03 05:53:37;;;;;;;23.83;22.33;;;13.30;99.90;;;;;;5014917;28;20730;-71
2022/09/03 05:56:09;;;;;;;23.67;22.17;;;13.40;99.90;;;;;;5008916;28;20104;-72
2022/09/03 05:58:39;;;;;;;23.77;22.27;;;13.50;99.90;;;;;;5013083;28;20042;-73
2022/09/03 06:01:15;;;;;;;23.85;22.27;;;13.50;99.90;;;;;;4994856;28;20065;-71
2022/09/03 06:03:44;;;;;;;24.17;22.67;;;13.50;99.90;;;;;;5013031;28;20096;-70
2022/09/03 06:06:12;;;;;;;24.08;22.42;;;13.60;99.90;;;;;;5012407;28;20042;-71
2022/09/03 06:08:40;;;;;;;24.05;22.48;;;13.70;99.90;;;;;;4991126;28;20053;-70
2022/09/03 06:11:08;;;;;;;23.65;22.25;;;13.70;99.90;;;;;;5005596;28;20084;-72
2022/09/03 06:13:36;;;;;;;24.10;22.60;;;13.80;99.90;;;;;;4991459;28;20048;-71
2022/09/03 06:16:05;;;;;;;23.33;22.02;;;13.70;99.90;;;;;;5011890;28;20096;-70
2022/09/03 06:18:32;;;;;;;23.60;22.25;;;13.80;99.90;;;;;;4975842;28;20272;-71
2022/09/03 06:21:01;;;;;;;23.95;22.55;;;13.90;99.90;;;;;;5014263;28;20041;-69
2022/09/03 06:23:29;;;;;;;23.95;22.52;;;13.90;99.90;;;;;;4991615;28;20579;-68
2022/09/03 06:26:09;;;;;;;24.38;22.98;;;13.90;99.90;;;;;;5014538;28;20072;-70
2022/09/03 06:28:39;;;;;;;24.45;22.95;;;14.00;99.90;;;;;;5009419;28;20076;-70
2022/09/03 06:31:08;;;;;;;24.55;23.13;;;14.10;99.90;;;;;;4987943;28;20053;-73
2022/09/03 06:33:37;;;;;;;24.98;23.38;;;14.20;99.90;;;;;;4997400;28;20038;-71
2022/09/03 06:36:06;;;;;;;24.45;23.08;;;14.20;99.90;;;;;;5013250;28;20030;-73
2022/09/03 06:38:37;;;;;;;24.48;22.88;;;14.20;99.90;;;;;;4990126;28;20054;-72
2022/09/03 06:41:19;;;;;;;25.02;23.42;;;14.30;99.90;;;;;;5007187;28;20060;-72
2022/09/03 06:43:48;;;;;;;24.25;22.80;;;14.30;99.90;;;;;;4992098;28;20050;-71
2022/09/03 06:46:17;;;;;;;23.30;22.08;;;14.30;99.90;;;;;;5006720;28;20138;-72
2022/09/03 06:48:45;;;;;;;24.60;23.10;;;14.40;99.90;;;;;;5014086;28;20038;-71
2022/09/03 06:51:15;;;;;;;23.40;21.80;;;14.50;99.90;;;;;;5011664;28;20044;-72
2022/09/03 06:53:44;;;;;;;24.50;23.10;;;14.60;99.90;;;;;;4998610;28;20072;-73
2022/09/03 06:56:13;;;;;;;24.33;22.85;;;14.70;99.90;;;;;;4998083;28;20053;-74
2022/09/03 06:58:45;;;;;;;24.00;22.42;;;14.80;99.90;;;;;;4990186;28;20100;-73
2022/09/03 07:01:15;;;;;;;22.90;21.58;;;15.00;99.90;;;;;;5012248;28;20100;-72
2022/09/03 07:03:43;;;;;;;23.77;22.27;;;15.10;99.90;;;;;;5013947;28;20044;-70
2022/09/03 07:06:13;;;;;;;23.50;22.10;;;15.20;99.90;;;;;;4989491;28;20056;-71
2022/09/03 07:08:41;;;;;;;23.23;21.92;;;15.60;99.90;;;;;;5003213;28;20041;-70
2022/09/03 07:11:11;;;;;;;22.85;21.48;;;15.80;99.90;;;;;;4981220;28;20072;-71
2022/09/03 07:13:40;;;;;;;22.88;21.40;;;15.90;99.90;;;;;;5011353;28;20049;-72
2022/09/03 07:16:10;;;;;;;22.50;21.23;;;16.10;99.90;;;;;;5008057;28;20077;-71
2022/09/03 07:18:38;;;;;;;22.98;21.58;;;16.20;99.90;;;;;;4991307;28;20087;-72
2022/09/03 07:21:10;;;;;;;23.90;22.50;;;16.20;99.90;;;;;;5006840;28;20512;-71
2022/09/03 07:23:38;;;;;;;23.65;22.15;;;16.30;99.90;;;;;;5008011;28;20042;-72
2022/09/03 07:26:12;;;;;;;24.20;22.55;;;16.50;99.90;;;;;;5008868;28;20075;-70
2022/09/03 07:28:40;;;;;;;23.70;22.27;;;16.90;99.90;;;;;;4985595;28;20077;-70
2022/09/03 07:31:29;;;;;;;22.85;21.48;;;17.10;99.90;;;;;;4971301;28;20561;-71
2022/09/03 07:34:07;;;;;;;23.13;21.83;;;17.20;99.90;;;;;;5014571;28;20153;-71
2022/09/03 07:36:49;;;;;;;22.27;20.98;;;16.90;99.90;;;;;;5013833;28;20048;-72
2022/09/03 07:39:17;;;;;;;23.02;21.63;;;17.10;99.90;;;;;;5009597;28;20442;-72
2022/09/03 07:41:45;;;;;;;25.25;23.65;;;17.40;99.90;;;;;;5018014;28;20125;-72
2022/09/03 07:44:14;;;;;;;24.13;22.60;;;17.30;99.90;;;;;;4991195;28;20050;-72
2022/09/03 07:46:44;;;;;;;25.48;23.77;;;17.40;99.90;;;;;;5012367;28;20041;-70
2022/09/03 07:49:10;;;;;;;24.80;23.45;;;17.60;99.90;;;;;;4987916;28;20049;-70
2022/09/03 07:51:38;;;;;;;24.90;23.50;;;17.80;99.90;;;;;;5015710;28;20100;-70
2022/09/03 07:54:09;;;;;;;24.73;23.33;;;17.80;99.90;;;;;;4996947;28;20042;-71
2022/09/03 07:56:39;;;;;;;24.88;23.48;;;18.00;99.90;;;;;;4987226;28;20045;-71
2022/09/03 07:59:06;;;;;;;25.63;24.13;;;18.20;99.90;;;;;;5011972;28;20057;-71
2022/09/03 08:01:35;;;;;;;24.55;23.15;;;18.10;99.90;;;;;;5015511;28;20189;-71
2022/09/03 08:04:03;;;;;;;25.63;24.23;;;18.50;99.90;;;;;;4987669;28;20053;-71
2022/09/03 08:06:32;;;;;;;24.88;23.58;;;18.70;99.90;;;;;;5000528;28;20068;-69
2022/09/03 08:09:02;;;;;;;25.20;23.83;;;18.80;99.90;;;;;;5022791;28;20103;-73
2022/09/03 08:11:40;;;;;;;26.73;24.70;;;18.70;99.90;;;;;;4994988;28;20096;-72
2022/09/03 08:14:09;;;;;;;25.35;24.02;;;18.50;99.90;;;;;;4993278;28;20072;-73
2022/09/03 08:16:38;;;;;;;25.55;24.15;;;18.80;99.90;;;;;;5009557;28;20045;-71
2022/09/03 08:19:06;;;;;;;26.65;25.05;;;19.00;99.90;;;;;;5011677;28;20049;-73
2022/09/03 08:21:33;;;;;;;26.20;24.60;;;19.20;99.90;;;;;;4990404;28;20085;-70
2022/09/03 08:24:03;;;;;;;27.25;25.75;;;19.20;99.90;;;;;;5014084;28;20058;-71
2022/09/03 08:26:32;;;;;;;27.42;25.83;;;19.00;99.90;;;;;;4979179;28;20045;-72
2022/09/03 08:29:00;;;;;;;26.92;25.40;;;19.10;99.90;;;;;;4999635;28;20100;-72
2022/09/03 08:31:28;;;;;;;27.42;25.83;;;19.10;99.90;;;;;;5012120;28;20076;-71
2022/09/03 08:33:57;;;;;;;26.15;24.75;;;19.50;99.90;;;;;;5016283;28;20680;-71
2022/09/03 08:36:29;;;;;;;27.63;26.13;;;19.70;99.90;;;;;;4999674;28;20107;-72
2022/09/03 08:39:02;;;;;;;26.95;25.45;;;19.50;99.90;;;;;;4994588;28;20049;-72
2022/09/03 08:41:32;;;;;;;28.23;26.73;;;19.50;99.90;;;;;;4991473;28;20292;-72
2022/09/03 08:44:30;;;;;;;29.92;28.33;;;19.70;99.90;;;;;;4999309;28;20081;-73
2022/09/03 08:47:09;;;;;;;29.10;27.30;;;19.90;99.90;;;;;;5012762;28;20104;-70
2022/09/03 08:50:01;;;;;;;28.70;27.10;;;20.10;99.90;;;;;;5009881;28;20614;-71
2022/09/03 08:52:39;;;;;;;29.17;27.27;;;20.10;99.90;;;;;;4993505;28;20089;-71
2022/09/03 08:55:29;;;;;;;29.80;27.95;;;20.30;99.90;;;;;;5012825;28;20743;-73
2022/09/03 08:58:09;;;;;;;29.52;27.92;;;20.30;99.90;;;;;;5016608;28;20421;-69
2022/09/03 09:00:48;;;;;;;29.05;27.35;;;20.30;99.90;;;;;;5012767;28;20239;-71
2022/09/03 09:03:33;;;;;;;29.38;27.77;;;20.10;99.90;;;;;;5014017;28;20055;-71
2022/09/03 09:06:28;;;;;;;27.67;26.05;;;20.10;99.90;;;;;;5006709;28;20750;-70
2022/09/03 09:09:24;;;;;;;27.48;25.98;;;20.10;99.90;;;;;;5012432;28;20496;-69
2022/09/03 09:11:54;;;;;;;;;;;20.40;99.90;;;;;;4999923;28;20088;-70
2022/09/03 09:14:23;;;;;;;28.40;26.70;;;20.50;99.90;;;;;;4989802;28;19975;-76
2022/09/03 09:17:01;;;;;;;28.65;27.10;;;20.70;99.90;;;;;;4981259;28;20061;-76
2022/09/03 09:20:00;;;;;;;28.95;26.90;;;20.80;99.90;;;;;;4972681;28;20080;-78
2022/09/03 09:22:33;;;;;;;27.80;26.20;;;20.60;99.90;;;;;;4974711;28;20072;-76
2022/09/03 09:25:08;;;;;;;29.02;27.20;;;20.30;99.90;;;;;;4960263;28;20042;-76
2022/09/03 09:27:34;;;;;;;28.17;26.48;;;20.20;99.90;;;;;;4976606;28;20050;-76
2022/09/03 09:30:04;;;;;;;29.58;27.95;;;20.40;99.90;;;;;;4972934;28;20568;-75
2022/09/03 09:32:32;;;;;;;29.38;27.45;;;20.50;99.90;;;;;;4964120;28;20052;-76
2022/09/03 09:34:59;;;;;;;29.27;27.58;;;20.90;99.90;;;;;;4995618;28;20472;-76
2022/09/03 09:37:26;;;;;;;29.75;28.02;;;21.20;99.90;;;;;;4975609;28;20092;-75
2022/09/03 09:39:58;;;;;;;28.60;27.00;;;21.60;99.90;;;;;;4970033;28;20103;-76
2022/09/03 09:42:26;;;;;;;27.85;26.30;;;21.70;99.90;;;;;;4969759;28;20117;-76
2022/09/03 09:44:53;;;;;;;28.15;26.48;;;21.70;99.90;;;;;;4974035;28;20104;-76
2022/09/03 09:47:28;;;;;;;27.75;26.08;;;21.80;99.90;;;;;;4980006;28;20038;-76
2022/09/03 09:49:57;;;;;;;25.70;24.20;;;21.30;99.90;;;;;;4968675;28;20128;-76
2022/09/03 09:52:27;;;;;;;27.58;25.77;;;21.10;99.90;;;;;;4969168;28;20402;-76
2022/09/03 09:55:09;;;;;;;26.02;24.52;;;21.10;99.90;;;;;;4990655;28;20050;-76
2022/09/03 09:57:38;;;;;;;27.65;26.15;;;21.10;99.90;;;;;;4979096;28;20046;-75
2022/09/03 10:00:16;;;;;;;27.55;25.73;;;21.10;99.90;;;;;;4963500;28;20117;-76
2022/09/03 10:02:55;;;;;;;26.02;24.42;;;21.20;99.90;;;;;;4951617;28;20111;-75
2022/09/03 10:05:39;;;;;;;25.25;23.55;;;21.10;99.90;;;;;;4962799;28;20595;-77
2022/09/03 10:08:20;;;;;;;25.85;24.25;;;20.70;99.90;;;;;;4968827;28;20053;-78
2022/09/03 10:10:50;;;;;;;26.77;25.27;;;20.50;99.90;;;;;;4984229;28;20116;-76
2022/09/03 10:13:34;;;;;;;26.60;25.00;;;20.60;99.90;;;;;;4969879;28;20106;-76
2022/09/03 10:16:17;;;;;;;29.08;27.27;;;20.90;99.90;;;;;;4976442;28;20302;-76
2022/09/03 10:18:54;;;;;;;26.73;24.88;;;21.20;99.90;;;;;;4969332;28;20638;-77
2022/09/03 10:21:34;;;;;;;27.13;25.45;;;21.30;99.90;;;;;;4978362;28;20058;-76
2022/09/03 10:24:22;;;;;;;28.83;26.90;;;21.70;99.90;;;;;;4987443;28;20050;-76
2022/09/03 10:26:49;;;;;;;28.15;26.45;;;21.70;99.90;;;;;;4973832;28;20045;-77
2022/09/03 10:29:20;;;;;;;28.77;26.90;;;22.20;99.90;;;;;;4962210;28;20498;-76
2022/09/03 10:31:47;;;;;;;26.92;25.40;;;22.30;99.90;;;;;;4972034;28;20613;-77
2022/09/03 10:34:39;;;;;;;27.63;26.08;;;22.70;99.90;;;;;;4964434;28;20046;-77
2022/09/03 10:37:15;;;;;;;28.30;26.77;;;23.00;99.90;;;;;;4974192;28;20116;-77
2022/09/03 10:40:05;;;;;;;30.25;28.40;;;23.20;99.90;;;;;;4978932;28;20392;-76
2022/09/03 10:42:58;;;;;;;31.00;29.30;;;23.00;99.90;;;;;;4953416;28;20038;-77
2022/09/03 10:45:50;;;;;;;28.58;26.98;;;22.90;99.90;;;;;;4975612;28;20050;-76
2022/09/03 10:48:20;;;;;;;28.85;27.15;;;22.50;99.90;;;;;;4970706;28;20430;-76
2022/09/03 10:50:52;;;;;;;28.85;27.15;;;22.00;99.90;;;;;;4982628;28;20046;-76
2022/09/03 10:54:01;;;;;;;28.83;27.23;;;22.30;99.90;;;;;;4962183;28;20054;-76
2022/09/03 10:56:38;;;;;;;27.95;26.35;;;22.80;99.90;;;;;;4954736;28;20057;-76
2022/09/03 10:59:27;;;;;;;28.23;26.63;;;23.20;99.90;;;;;;4984852;28;20233;-76
2022/09/03 11:02:25;;;;;;;29.30;27.35;;;23.10;99.90;;;;;;4980628;28;20038;-77
2022/09/03 11:04:57;;;;;;;28.95;27.23;;;23.40;99.90;;;;;;4980846;28;20586;-77
2022/09/03 11:07:33;;;;;;;29.40;27.65;;;23.40;99.90;;;;;;4979909;28;20515;-76
2022/09/03 11:10:18;;;;;;;29.95;28.17;;;23.30;99.90;;;;;;4984863;28;20054;-77
2022/09/03 11:12:48;;;;;;;30.33;28.42;;;23.50;99.90;;;;;;4968640;28;20092;-77
2022/09/03 11:15:21;;;;;;;29.33;27.73;;;23.50;99.90;;;;;;4981299;28;20056;-77
2022/09/03 11:18:24;;;;;;;29.60;27.48;;;23.50;99.90;;;;;;4984050;28;20154;-76
2022/09/03 11:21:03;;;;;;;29.05;27.35;;;23.50;99.90;;;;;;4958799;28;20046;-77
2022/09/03 11:23:46;;;;;;;30.77;28.52;;;23.80;99.90;;;;;;4978723;28;20061;-77
2022/09/03 11:26:17;;;;;;;30.60;28.80;;;24.30;99.90;;;;;;4984232;28;20050;-77
2022/09/03 11:29:00;;;;;;;27.77;25.80;;;24.40;99.90;;;;;;4979190;28;20448;-76
2022/09/03 11:31:57;;;;;;;26.10;24.70;;;24.10;99.90;;;;;;4979962;28;20038;-77
2022/09/03 11:34:25;;;;;;;26.02;24.52;;;23.70;99.90;;;;;;4953082;28;20534;-77
2022/09/03 11:37:26;;;;;;;27.33;25.45;;;23.10;99.90;;;;;;4972549;28;20285;-77
2022/09/03 11:40:19;;;;;;;26.75;24.92;;;22.80;99.90;;;;;;4988786;28;20050;-77
2022/09/03 11:42:46;;;;;;;25.52;24.02;;;22.50;99.90;;;;;;4978484;28;20053;-77
2022/09/03 11:45:19;;;;;;;25.70;24.17;;;22.40;99.90;;;;;;4984801;28;20050;-77
2022/09/03 11:47:47;;;;;;;26.65;24.90;;;22.40;99.90;;;;;;4982839;28;20046;-77
2022/09/03 11:50:24;;;;;;;25.95;24.25;;;22.40;99.90;;;;;;4987724;28;20042;-77
2022/09/03 11:53:06;;;;;;;28.00;26.30;;;22.50;99.90;;;;;;4980985;28;20077;-77
2022/09/03 11:56:03;;;;;;;28.35;26.55;;;22.80;99.90;;;;;;4983794;28;20070;-77
2022/09/03 11:58:38;;;;;;;25.98;24.23;;;22.90;99.90;;;;;;4976979;28;20414;-78
2022/09/03 12:01:14;;;;;;;25.73;24.02;;;23.50;99.90;;;;;;4974551;28;20132;-77
2022/09/03 12:03:46;;;;;;;25.52;24.02;;;23.50;99.90;;;;;;4981280;28;20059;-77
2022/09/03 12:06:19;;;;;;;26.50;25.00;;;23.40;99.90;;;;;;4968750;28;20046;-77
2022/09/03 12:09:17;;;;;;;26.15;24.40;;;23.10;99.90;;;;;;4980225;28;20616;-77
2022/09/03 12:12:06;;;;;;;27.05;25.27;;;22.90;99.90;;;;;;4985732;28;20046;-77
2022/09/03 12:14:46;;;;;;;26.90;25.13;;;23.10;99.90;;;;;;4987095;28;20123;-77
2022/09/03 12:17:21;;;;;;;26.88;25.10;;;23.10;99.90;;;;;;4972346;28;20053;-78
2022/09/03 12:19:53;;;;;;;27.33;25.77;;;23.30;99.90;;;;;;4966025;28;20046;-77
2022/09/03 12:22:24;;;;;;;28.08;26.38;;;23.20;99.90;;;;;;4979296;28;20050;-77
2022/09/03 12:24:51;;;;;;;27.00;25.42;;;23.50;99.90;;;;;;4980357;28;20046;-77
2022/09/03 12:27:23;;;;;;;28.00;26.35;;;23.30;99.90;;;;;;4990867;28;20507;-77
2022/09/03 12:30:02;;;;;;;27.17;25.65;;;23.10;99.90;;;;;;4951181;28;20038;-77
2022/09/03 12:32:35;;;;;;;28.45;26.85;;;23.70;99.90;;;;;;4975543;28;20042;-77
2022/09/03 12:35:21;;;;;;;25.63;24.20;;;23.70;99.90;;;;;;4971651;28;20081;-76
2022/09/03 12:38:11;;;;;;;28.63;26.90;;;23.50;99.90;;;;;;4961395;28;20104;-77
2022/09/03 12:40:44;;;;;;;26.08;24.42;;;23.70;99.90;;;;;;4985338;28;20133;-78
2022/09/03 12:43:31;;;;;;;26.48;24.88;;;23.60;99.90;;;;;;4970907;28;20133;-76
2022/09/03 12:46:14;;;;;;;26.90;25.30;;;23.40;99.90;;;;;;4973562;28;20042;-77
2022/09/03 12:48:54;;;;;;;25.88;24.20;;;23.50;99.90;;;;;;4981300;28;20049;-77
2022/09/03 12:51:42;;;;;;;26.23;24.77;;;23.60;99.90;;;;;;4985240;28;20153;-76
2022/09/03 12:54:22;;;;;;;26.60;25.10;;;23.50;99.90;;;;;;4977567;28;20096;-77
2022/09/03 12:56:56;;;;;;;27.30;25.70;;;23.60;99.90;;;;;;4981480;28;20126;-77
2022/09/03 12:59:27;;;;;;;26.20;24.70;;;23.30;99.90;;;;;;4983568;28;20553;-77
2022/09/03 13:01:59;;;;;;;26.35;24.85;;;23.30;99.90;;;;;;4974723;28;20046;-76
2022/09/03 13:04:34;;;;;;;26.08;24.38;;;23.10;99.90;;;;;;4971190;28;20112;-77
2022/09/03 13:07:20;;;;;;;26.20;24.50;;;22.90;99.90;;;;;;4981597;28;20039;-77
2022/09/03 13:09:48;;;;;;;24.65;23.15;;;22.90;99.90;;;;;;4966289;28;20105;-76
2022/09/03 13:12:43;;;;;;;25.95;24.35;;;23.00;99.90;;;;;;4973032;28;20047;-76
2022/09/03 13:15:18;;;;;;;25.60;24.03;;;23.10;99.90;;;;;;4973185;28;20558;-76
2022/09/03 13:18:26;;;;;;;26.00;24.48;;;23.20;99.90;;;;;;4981990;28;20759;-75